Terminal Aerodrome Forecast
Issued by NWS Tulsa, OK

Home | Current Version | Previous Version | Text Only | Print | Product List | Glossary On
Versions: 1 2 3 4 5 6 7 8 9 10 11 12
000
FTUS44 KTSA 291100
TAFTUL
TAF
KTUL 291120Z 2912/3012 01004KT P6SM FEW100
     FM291800 05006KT P6SM SCT250
     FM300000 10005KT P6SM BKN250
     FM300800 12004KT P6SM OVC100 PROB30 3008/3012 4SM -RA BR
      OVC050=

USA.gov is the U.S. government's official web portal to all federal, state and local government web resources and services.